createdAt,value
2023-12-13T00:00:01.614Z,79.30
2023-12-13T00:02:29.814Z,79.30
2023-12-13T00:04:57.800Z,79.50
2023-12-13T00:07:25.629Z,79.53
2023-12-13T00:09:53.639Z,79.52
2023-12-13T00:12:21.913Z,79.42
2023-12-13T00:14:49.613Z,79.42
2023-12-13T00:17:19.336Z,79.49
2023-12-13T00:19:48.393Z,79.25
2023-12-13T00:22:16.664Z,79.22
2023-12-13T00:24:44.599Z,79.35
2023-12-13T00:27:12.487Z,79.54
2023-12-13T00:29:40.305Z,79.15
2023-12-13T00:32:08.232Z,79.15
2023-12-13T00:34:36.427Z,78.95
2023-12-13T00:37:04.494Z,79.07
2023-12-13T00:39:33.457Z,79.05
2023-12-13T00:42:01.231Z,79.19
2023-12-13T00:44:29.048Z,79.32
2023-12-13T00:46:57.083Z,79.51
2023-12-13T00:49:24.882Z,79.70
2023-12-13T00:51:53.220Z,79.60
2023-12-13T00:54:21.054Z,79.58
2023-12-13T00:56:49.146Z,79.26
2023-12-13T00:59:17.454Z,79.40
2023-12-13T01:01:45.704Z,79.36
2023-12-13T01:04:14.939Z,79.08
2023-12-13T01:06:42.858Z,79.30
2023-12-13T01:09:11.529Z,79.23
2023-12-13T01:11:41.307Z,79.09
2023-12-13T01:14:09.972Z,79.18
2023-12-13T01:16:38.072Z,78.99
2023-12-13T01:19:06.008Z,78.96
2023-12-13T01:21:33.837Z,78.73
2023-12-13T01:24:01.786Z,78.82
2023-12-13T01:26:29.877Z,79.10
2023-12-13T01:28:58.301Z,79.27
2023-12-13T01:31:26.535Z,79.30
2023-12-13T01:33:54.613Z,79.08
2023-12-13T01:36:22.430Z,78.84
2023-12-13T01:38:50.320Z,78.83
2023-12-13T01:41:18.710Z,78.99
2023-12-13T01:43:47.176Z,78.97
2023-12-13T01:46:18.204Z,78.95
2023-12-13T01:48:47.277Z,79.16
2023-12-13T01:51:15.896Z,79.18
2023-12-13T01:53:44.707Z,79.24
2023-12-13T01:56:13.828Z,79.30
2023-12-13T01:58:42.417Z,79.28
2023-12-13T02:01:10.743Z,79.13
2023-12-13T02:03:39.358Z,79.55
2023-12-13T02:06:07.490Z,79.19
2023-12-13T02:08:35.618Z,79.49
2023-12-13T02:11:03.534Z,79.25
2023-12-13T02:13:31.464Z,79.29
2023-12-13T02:15:59.502Z,79.17
2023-12-13T02:18:28.552Z,79.20
2023-12-13T02:20:56.885Z,79.13
2023-12-13T02:23:24.915Z,79.46
2023-12-13T02:25:58.330Z,79.51
2023-12-13T02:28:28.465Z,79.31
2023-12-13T02:30:58.369Z,79.42
2023-12-13T02:33:31.529Z,79.58
2023-12-13T02:36:01.883Z,79.70
2023-12-13T02:38:30.966Z,79.52
2023-12-13T02:40:58.880Z,79.50
2023-12-13T02:43:29.572Z,79.61
2023-12-13T02:45:57.647Z,79.47
2023-12-13T02:48:26.787Z,79.39
2023-12-13T02:50:55.119Z,79.17
2023-12-13T02:53:24.416Z,79.39
2023-12-13T02:55:52.561Z,79.24
2023-12-13T02:58:20.585Z,79.32
2023-12-13T03:00:49.991Z,79.54
2023-12-13T03:03:18.459Z,79.16
2023-12-13T03:05:46.744Z,79.39
2023-12-13T03:08:18.751Z,79.28
2023-12-13T03:10:47.573Z,79.23
2023-12-13T03:13:17.971Z,79.01
2023-12-13T03:15:45.750Z,79.07
2023-12-13T03:18:14.001Z,79.03
2023-12-13T03:20:41.789Z,79.10
2023-12-13T03:23:10.637Z,79.18
2023-12-13T03:25:39.700Z,79.02
2023-12-13T03:28:07.426Z,79.17
2023-12-13T03:30:35.340Z,79.22
2023-12-13T03:33:03.831Z,79.17
2023-12-13T03:35:31.839Z,79.19
2023-12-13T03:37:59.657Z,78.97
2023-12-13T03:40:27.602Z,78.87
2023-12-13T03:42:55.965Z,78.96
2023-12-13T03:45:25.464Z,78.72
2023-12-13T03:47:54.156Z,78.67
2023-12-13T03:50:22.562Z,79.18
2023-12-13T03:52:50.672Z,79.19
2023-12-13T03:55:18.772Z,78.96
2023-12-13T03:57:47.075Z,78.91
2023-12-13T04:00:15.151Z,78.84
2023-12-13T04:02:43.128Z,78.85
2023-12-13T04:05:10.964Z,78.77
2023-12-13T04:07:39.375Z,79.00
2023-12-13T04:10:07.817Z,78.86
2023-12-13T04:12:35.599Z,78.71
2023-12-13T04:15:03.679Z,78.67
2023-12-13T04:17:32.147Z,78.65
2023-12-13T04:20:00.517Z,78.54
2023-12-13T04:22:29.318Z,78.72
2023-12-13T04:24:57.535Z,78.75
2023-12-13T04:27:25.285Z,78.83
2023-12-13T04:29:54.090Z,78.94
2023-12-13T04:32:21.972Z,78.85
2023-12-13T04:34:50.124Z,78.74
2023-12-13T04:37:18.483Z,78.68
2023-12-13T04:39:47.077Z,78.61
2023-12-13T04:42:14.762Z,78.74
2023-12-13T04:44:43.403Z,78.63
2023-12-13T04:47:12.351Z,78.81
2023-12-13T04:49:40.231Z,78.89
2023-12-13T04:52:09.450Z,78.90
2023-12-13T04:54:38.493Z,78.75
2023-12-13T04:57:07.098Z,78.76
2023-12-13T04:59:35.958Z,78.85
2023-12-13T05:02:03.979Z,79.16
2023-12-13T05:04:31.956Z,79.18
2023-12-13T05:07:00.368Z,79.20
2023-12-13T05:09:28.399Z,79.05
2023-12-13T05:11:56.603Z,79.07
2023-12-13T05:14:24.258Z,79.00
2023-12-13T05:16:52.242Z,78.97
2023-12-13T05:19:20.467Z,79.02
2023-12-13T05:21:48.745Z,79.21
2023-12-13T05:24:16.515Z,79.55
2023-12-13T05:26:44.340Z,79.51
2023-12-13T05:29:13.964Z,79.32
2023-12-13T05:31:42.130Z,78.76
2023-12-13T05:34:10.194Z,78.72
2023-12-13T05:36:38.648Z,79.01
2023-12-13T05:39:08.601Z,78.93
2023-12-13T05:41:37.004Z,79.05
2023-12-13T05:44:05.831Z,79.03
2023-12-13T05:46:35.525Z,79.10
2023-12-13T05:49:10.569Z,79.06
2023-12-13T05:51:41.412Z,79.00
2023-12-13T05:54:10.131Z,78.98
2023-12-13T05:56:38.127Z,78.88
2023-12-13T05:59:06.461Z,78.92
2023-12-13T06:01:34.258Z,78.95
2023-12-13T06:04:02.732Z,78.93
2023-12-13T06:06:30.804Z,79.02
2023-12-13T06:08:58.506Z,78.80
2023-12-13T06:11:26.266Z,78.81
2023-12-13T06:13:55.336Z,78.88
2023-12-13T06:16:23.543Z,78.86
2023-12-13T06:18:52.319Z,78.68
2023-12-13T06:21:20.271Z,78.74
2023-12-13T06:23:48.735Z,78.82
2023-12-13T06:26:17.040Z,78.78
2023-12-13T06:28:45.350Z,78.92
2023-12-13T06:31:13.845Z,78.83
2023-12-13T06:33:41.851Z,78.89
2023-12-13T06:36:10.361Z,78.70
2023-12-13T06:38:38.563Z,78.61
2023-12-13T06:41:07.336Z,78.63
2023-12-13T06:43:35.433Z,78.86
2023-12-13T06:46:03.245Z,78.82
2023-12-13T06:48:31.246Z,79.07
2023-12-13T06:50:59.116Z,79.08
2023-12-13T06:53:28.041Z,79.14
2023-12-13T06:55:56.418Z,79.27
2023-12-13T06:58:24.296Z,79.55
2023-12-13T07:00:52.613Z,79.52
2023-12-13T07:03:21.748Z,79.21
2023-12-13T07:05:50.409Z,79.44
2023-12-13T07:08:18.213Z,79.24
2023-12-13T07:10:46.529Z,79.40
2023-12-13T07:13:15.132Z,79.12
2023-12-13T07:15:42.892Z,79.04
2023-12-13T07:18:11.657Z,78.81
2023-12-13T07:20:40.980Z,78.78
2023-12-13T07:23:11.142Z,78.90
2023-12-13T07:25:40.167Z,78.88
2023-12-13T07:28:07.919Z,79.27
2023-12-13T07:30:37.021Z,79.87
2023-12-13T07:33:06.391Z,80.16
2023-12-13T07:35:34.086Z,80.27
2023-12-13T07:38:02.182Z,80.13
2023-12-13T07:40:30.653Z,79.81
2023-12-13T07:42:58.705Z,79.64
2023-12-13T07:45:26.526Z,79.58
2023-12-13T07:48:04.757Z,79.39
2023-12-13T07:50:44.292Z,79.44
2023-12-13T07:53:12.262Z,79.29
2023-12-13T07:55:40.341Z,79.26
2023-12-13T07:58:08.222Z,79.33
2023-12-13T08:00:36.506Z,79.78
2023-12-13T08:03:05.837Z,79.66
2023-12-13T08:05:34.930Z,79.60
2023-12-13T08:08:02.762Z,79.40
2023-12-13T08:10:31.365Z,79.21
2023-12-13T08:13:00.268Z,78.99
2023-12-13T08:15:28.023Z,79.13
2023-12-13T08:17:56.209Z,79.17
2023-12-13T08:20:30.397Z,79.45
2023-12-13T08:22:58.937Z,79.82
2023-12-13T08:25:27.689Z,79.42
2023-12-13T08:27:55.550Z,79.05
2023-12-13T08:30:23.394Z,79.06
2023-12-13T08:32:52.477Z,78.93
2023-12-13T08:35:20.799Z,79.34
2023-12-13T08:37:48.710Z,79.31
2023-12-13T08:40:17.436Z,80.08
2023-12-13T08:42:46.157Z,79.68
2023-12-13T08:45:14.440Z,79.56
2023-12-13T08:47:42.971Z,79.10
2023-12-13T08:50:11.348Z,79.11
2023-12-13T08:52:39.555Z,79.13
2023-12-13T08:55:11.680Z,79.14
2023-12-13T08:57:39.829Z,79.10
2023-12-13T09:00:10.695Z,78.84
2023-12-13T09:02:39.858Z,78.71
2023-12-13T09:05:09.674Z,78.46
2023-12-13T09:07:37.900Z,78.34
2023-12-13T09:10:09.632Z,78.36
2023-12-13T09:12:37.911Z,78.54
2023-12-13T09:15:08.544Z,78.40
2023-12-13T09:17:37.451Z,78.43
2023-12-13T09:20:11.252Z,78.25
2023-12-13T09:22:39.675Z,78.23
2023-12-13T09:25:08.268Z,78.08
2023-12-13T09:27:37.125Z,77.98
2023-12-13T09:30:05.325Z,77.72
2023-12-13T09:32:34.735Z,77.68
2023-12-13T09:35:03.768Z,77.93
2023-12-13T09:37:32.435Z,77.87
2023-12-13T09:40:03.125Z,78.07
2023-12-13T09:42:33.009Z,77.91
2023-12-13T09:45:05.584Z,78.03
2023-12-13T09:47:35.997Z,78.13
2023-12-13T09:50:04.681Z,77.94
2023-12-13T09:52:34.172Z,77.62
2023-12-13T09:55:04.266Z,77.86
2023-12-13T09:57:32.981Z,77.71
2023-12-13T10:00:00.740Z,77.77
2023-12-13T10:02:29.453Z,77.77
2023-12-13T10:05:00.524Z,77.70
2023-12-13T10:07:29.564Z,77.23
2023-12-13T10:09:57.277Z,77.44
2023-12-13T10:12:28.832Z,77.34
2023-12-13T10:14:57.039Z,77.07
2023-12-13T10:17:25.740Z,77.58
2023-12-13T10:19:53.476Z,77.46
2023-12-13T10:22:22.991Z,77.58
2023-12-13T10:24:51.144Z,77.03
2023-12-13T10:27:19.624Z,77.04
2023-12-13T10:29:48.431Z,77.36
2023-12-13T10:32:16.238Z,77.21
2023-12-13T10:34:44.503Z,76.61
2023-12-13T10:37:13.510Z,76.72
2023-12-13T10:39:45.663Z,76.86
2023-12-13T10:42:18.225Z,77.00
2023-12-13T10:44:51.571Z,77.09
2023-12-13T10:47:27.345Z,76.83
2023-12-13T10:50:05.053Z,76.72
2023-12-13T10:52:34.892Z,76.46
2023-12-13T10:55:02.708Z,76.59
2023-12-13T10:57:31.177Z,77.05
2023-12-13T10:59:59.878Z,76.98
2023-12-13T11:02:29.954Z,77.39
2023-12-13T11:04:58.424Z,77.09
2023-12-13T11:07:26.207Z,76.80
2023-12-13T11:09:55.197Z,76.95
2023-12-13T11:12:23.490Z,77.03
2023-12-13T11:14:53.149Z,77.25
2023-12-13T11:17:23.442Z,77.38
2023-12-13T11:19:53.777Z,77.34
2023-12-13T11:22:25.479Z,77.42
2023-12-13T11:25:05.150Z,77.55
2023-12-13T11:27:34.133Z,77.29
2023-12-13T11:30:33.104Z,76.85
2023-12-13T11:33:12.718Z,77.12
2023-12-13T11:35:42.648Z,77.00
2023-12-13T11:38:11.417Z,76.80
2023-12-13T11:40:42.034Z,76.99
2023-12-13T11:43:14.105Z,76.94
2023-12-13T11:45:50.712Z,76.95
2023-12-13T11:48:19.146Z,76.55
2023-12-13T11:50:47.730Z,76.91
2023-12-13T11:53:16.190Z,76.40
2023-12-13T11:55:44.925Z,77.04
2023-12-13T11:58:16.463Z,76.56
2023-12-13T12:00:45.908Z,76.28
2023-12-13T12:03:14.909Z,76.52
2023-12-13T12:05:44.394Z,76.35
2023-12-13T12:08:13.638Z,76.26
2023-12-13T12:10:44.036Z,76.48
2023-12-13T12:13:16.090Z,76.68
2023-12-13T12:15:45.484Z,76.67
2023-12-13T12:18:14.558Z,76.80
2023-12-13T12:20:43.067Z,76.74
2023-12-13T12:23:11.993Z,76.45
2023-12-13T12:25:43.735Z,76.46
2023-12-13T12:28:12.754Z,76.74
2023-12-13T12:30:41.663Z,76.68
2023-12-13T12:33:10.692Z,76.41
2023-12-13T12:35:40.499Z,76.73
2023-12-13T12:38:09.868Z,76.18
2023-12-13T12:40:38.759Z,76.21
2023-12-13T12:43:07.398Z,76.75
2023-12-13T12:45:35.382Z,76.99
2023-12-13T12:48:04.217Z,76.86
2023-12-13T12:50:32.186Z,76.98
2023-12-13T12:53:01.686Z,76.46
2023-12-13T12:55:30.534Z,76.47
2023-12-13T12:57:58.752Z,76.50
2023-12-13T13:00:26.641Z,77.12
2023-12-13T13:02:55.885Z,76.91
2023-12-13T13:05:23.783Z,76.88
2023-12-13T13:07:53.432Z,76.94
2023-12-13T13:10:21.550Z,76.90
2023-12-13T13:12:49.863Z,76.37
2023-12-13T13:15:17.711Z,76.89
2023-12-13T13:17:46.426Z,76.87
2023-12-13T13:20:16.478Z,76.79
2023-12-13T13:22:45.478Z,77.38
2023-12-13T13:25:16.303Z,77.23
2023-12-13T13:27:45.771Z,77.22
2023-12-13T13:30:15.176Z,77.30
2023-12-13T13:32:43.294Z,77.39
2023-12-13T13:35:12.493Z,77.52
2023-12-13T13:37:40.301Z,76.92
2023-12-13T13:40:08.799Z,77.42
2023-12-13T13:42:36.889Z,76.60
2023-12-13T13:45:07.745Z,77.14
2023-12-13T13:47:36.262Z,77.15
2023-12-13T13:50:04.925Z,76.43
2023-12-13T13:52:33.047Z,76.65
2023-12-13T13:55:01.055Z,76.43
2023-12-13T13:57:29.228Z,76.32
2023-12-13T13:59:58.839Z,75.84
2023-12-13T14:02:50.037Z,76.38
2023-12-13T14:05:18.818Z,76.22
2023-12-13T14:07:46.883Z,76.51
2023-12-13T14:10:15.115Z,77.13
2023-12-13T14:12:42.850Z,77.04
2023-12-13T14:15:12.392Z,77.11
2023-12-13T14:17:41.077Z,77.01
2023-12-13T14:20:12.180Z,77.58
2023-12-13T14:22:40.455Z,77.72
2023-12-13T14:25:09.831Z,77.15
2023-12-13T14:27:38.021Z,77.11
2023-12-13T14:30:06.905Z,76.59
2023-12-13T14:32:34.812Z,76.48
2023-12-13T14:35:05.816Z,76.85
2023-12-13T14:37:40.453Z,77.14
2023-12-13T14:40:12.761Z,77.17
2023-12-13T14:42:42.723Z,77.45
2023-12-13T14:45:10.658Z,76.95
2023-12-13T14:47:40.097Z,77.01
2023-12-13T14:50:10.771Z,77.03
2023-12-13T14:52:39.077Z,77.23
2023-12-13T14:55:09.425Z,77.29
2023-12-13T14:57:38.502Z,77.54
2023-12-13T15:00:13.095Z,77.87
2023-12-13T15:02:45.796Z,77.95
2023-12-13T15:05:14.529Z,78.33
2023-12-13T15:07:44.155Z,78.06
2023-12-13T15:10:15.131Z,78.31
2023-12-13T15:12:44.889Z,78.27
2023-12-13T15:15:13.068Z,78.50
2023-12-13T15:17:41.636Z,78.89
2023-12-13T15:20:11.288Z,78.81
2023-12-13T15:22:39.506Z,78.67
2023-12-13T15:25:12.758Z,78.68
2023-12-13T15:27:43.999Z,78.42
2023-12-13T15:30:13.305Z,78.24
2023-12-13T15:32:43.258Z,78.09
2023-12-13T15:35:12.758Z,77.70
2023-12-13T15:37:41.221Z,78.11
2023-12-13T15:40:10.995Z,78.47
2023-12-13T15:42:39.014Z,78.50
2023-12-13T15:45:08.828Z,78.41
2023-12-13T15:47:37.976Z,78.06
2023-12-13T15:50:08.605Z,78.19
2023-12-13T15:52:38.831Z,78.29
2023-12-13T15:55:08.512Z,78.24
2023-12-13T15:57:36.472Z,78.45
2023-12-13T16:00:06.596Z,78.31
2023-12-13T16:02:35.150Z,78.37
2023-12-13T16:05:04.622Z,78.72
2023-12-13T16:07:33.304Z,78.80
2023-12-13T16:10:02.098Z,78.90
2023-12-13T16:12:30.220Z,79.18
2023-12-13T16:15:00.370Z,79.09
2023-12-13T16:17:29.676Z,78.97
2023-12-13T16:19:57.847Z,78.71
2023-12-13T16:22:28.709Z,78.66
2023-12-13T16:24:58.946Z,78.90
2023-12-13T16:27:27.230Z,78.79
2023-12-13T16:29:57.998Z,78.87
2023-12-13T16:32:26.344Z,78.93
2023-12-13T16:34:55.004Z,78.57
2023-12-13T16:37:31.796Z,78.56
2023-12-13T16:39:59.659Z,78.78
2023-12-13T16:42:27.442Z,78.80
2023-12-13T16:44:55.825Z,78.94
2023-12-13T16:47:23.934Z,78.93
2023-12-13T16:49:55.885Z,78.86
2023-12-13T16:52:23.843Z,78.90
2023-12-13T16:54:51.952Z,78.73
2023-12-13T16:57:21.881Z,78.77
2023-12-13T16:59:50.370Z,78.71
2023-12-13T17:02:18.183Z,78.42
2023-12-13T17:05:06.865Z,78.66
2023-12-13T17:07:34.769Z,78.90
2023-12-13T17:10:02.782Z,78.67
2023-12-13T17:12:32.193Z,78.72
2023-12-13T17:15:03.179Z,78.66
2023-12-13T17:17:32.840Z,78.44
2023-12-13T17:20:00.942Z,78.67
2023-12-13T17:22:32.478Z,78.76
2023-12-13T17:25:00.933Z,78.80
2023-12-13T17:27:29.026Z,78.50
2023-12-13T17:29:56.830Z,78.54
2023-12-13T17:32:24.692Z,78.44
2023-12-13T17:34:52.425Z,78.33
2023-12-13T17:37:21.942Z,78.46
2023-12-13T17:39:50.636Z,78.51
2023-12-13T17:42:18.580Z,78.83
2023-12-13T17:44:47.300Z,78.65
2023-12-13T17:47:17.738Z,78.60
2023-12-13T17:49:45.680Z,78.54
2023-12-13T17:52:15.290Z,78.31
2023-12-13T17:54:43.637Z,78.63
2023-12-13T17:57:13.982Z,78.75
2023-12-13T17:59:43.285Z,78.99
2023-12-13T18:02:14.374Z,79.34
2023-12-13T18:04:44.198Z,79.55
2023-12-13T18:07:12.502Z,79.35
2023-12-13T18:09:43.281Z,79.27
2023-12-13T18:12:11.698Z,79.24
2023-12-13T18:14:40.141Z,79.32
2023-12-13T18:17:08.095Z,79.39
2023-12-13T18:19:36.634Z,79.50
2023-12-13T18:22:05.705Z,79.50
2023-12-13T18:24:33.746Z,79.48
2023-12-13T18:27:02.325Z,79.29
2023-12-13T18:29:32.237Z,78.99
2023-12-13T18:32:03.758Z,78.92
2023-12-13T18:34:32.391Z,78.95
2023-12-13T18:37:00.619Z,79.09
2023-12-13T18:39:28.302Z,79.59
2023-12-13T18:41:56.399Z,79.16
2023-12-13T18:44:24.140Z,79.14
2023-12-13T18:46:51.708Z,79.37
2023-12-13T18:49:20.085Z,79.17
2023-12-13T18:51:51.582Z,79.05
2023-12-13T18:54:20.106Z,78.91
2023-12-13T18:56:47.922Z,78.97
2023-12-13T18:59:16.372Z,79.02
2023-12-13T19:01:44.587Z,79.06
2023-12-13T19:04:12.459Z,78.93
2023-12-13T19:06:41.318Z,79.02
2023-12-13T19:09:09.375Z,79.07
2023-12-13T19:11:37.533Z,78.67
2023-12-13T19:14:07.462Z,78.88
2023-12-13T19:16:40.611Z,78.81
2023-12-13T19:19:09.028Z,78.84
2023-12-13T19:21:37.323Z,78.96
2023-12-13T19:24:05.293Z,79.25
2023-12-13T19:26:33.553Z,79.57
2023-12-13T19:29:05.078Z,79.66
2023-12-13T19:31:33.031Z,79.59
2023-12-13T19:34:01.374Z,79.54
2023-12-13T19:36:29.259Z,79.41
2023-12-13T19:38:57.462Z,79.36
2023-12-13T19:41:25.248Z,79.21
2023-12-13T19:43:52.882Z,79.14
2023-12-13T19:46:21.215Z,79.22
2023-12-13T19:48:49.744Z,79.18
2023-12-13T19:51:17.846Z,79.63
2023-12-13T19:53:45.881Z,79.19
2023-12-13T19:56:13.653Z,79.41
2023-12-13T19:58:41.756Z,79.34
2023-12-13T20:01:11.645Z,79.29
2023-12-13T20:03:39.387Z,79.16
2023-12-13T20:06:07.553Z,78.93
2023-12-13T20:08:35.625Z,79.32
2023-12-13T20:11:03.475Z,79.54
2023-12-13T20:13:36.353Z,79.44
2023-12-13T20:16:07.827Z,79.55
2023-12-13T20:18:36.861Z,79.47
2023-12-13T20:21:05.724Z,79.36
2023-12-13T20:23:33.625Z,79.57
2023-12-13T20:26:04.244Z,79.34
2023-12-13T20:28:33.773Z,79.05
2023-12-13T20:31:01.821Z,79.38
2023-12-13T20:33:30.084Z,79.28
2023-12-13T20:35:58.616Z,79.19
2023-12-13T20:38:26.666Z,78.97
2023-12-13T20:40:54.703Z,78.88
2023-12-13T20:43:23.174Z,78.86
2023-12-13T20:45:53.705Z,78.53
2023-12-13T20:48:21.691Z,78.60
2023-12-13T20:50:49.476Z,79.01
2023-12-13T20:53:17.730Z,78.91
2023-12-13T20:55:46.246Z,78.84
2023-12-13T20:58:14.045Z,78.81
2023-12-13T21:00:42.049Z,78.86
2023-12-13T21:03:10.235Z,78.89
2023-12-13T21:05:38.337Z,78.67
2023-12-13T21:08:08.861Z,78.71
2023-12-13T21:10:38.957Z,79.01
2023-12-13T21:13:07.179Z,79.01
2023-12-13T21:15:35.242Z,78.93
2023-12-13T21:18:03.485Z,78.67
2023-12-13T21:20:31.586Z,78.79
2023-12-13T21:23:01.909Z,79.01
2023-12-13T21:25:30.354Z,79.00
2023-12-13T21:27:58.384Z,79.20
2023-12-13T21:30:26.745Z,79.14
2023-12-13T21:32:54.651Z,78.73
2023-12-13T21:35:22.478Z,78.80
2023-12-13T21:37:51.222Z,78.72
2023-12-13T21:40:19.049Z,79.20
2023-12-13T21:42:47.167Z,78.85
2023-12-13T21:45:14.956Z,78.93
2023-12-13T21:47:42.939Z,78.98
2023-12-13T21:50:10.981Z,79.38
2023-12-13T21:52:40.029Z,79.34
2023-12-13T21:55:08.816Z,79.34
2023-12-13T21:57:37.763Z,79.44
2023-12-13T22:00:08.299Z,79.04
2023-12-13T22:02:36.274Z,78.97
2023-12-13T22:05:05.812Z,79.14
2023-12-13T22:07:34.059Z,78.68
2023-12-13T22:10:02.083Z,79.09
2023-12-13T22:12:31.684Z,79.02
2023-12-13T22:15:00.228Z,78.98
2023-12-13T22:17:30.042Z,79.03
2023-12-13T22:19:59.442Z,79.00
2023-12-13T22:22:27.839Z,78.79
2023-12-13T22:24:55.553Z,78.93
2023-12-13T22:27:23.122Z,79.00
2023-12-13T22:29:51.795Z,78.68
2023-12-13T22:32:22.924Z,78.85
2023-12-13T22:34:50.927Z,78.92
2023-12-13T22:37:19.353Z,79.29
2023-12-13T22:39:47.065Z,79.20
2023-12-13T22:42:15.239Z,79.25
2023-12-13T22:44:43.012Z,79.41
2023-12-13T22:47:11.561Z,79.48
2023-12-13T22:49:40.028Z,79.59
2023-12-13T22:52:20.161Z,79.58
2023-12-13T22:54:52.260Z,79.50
2023-12-13T22:57:19.938Z,79.22
2023-12-13T22:59:47.521Z,79.49
2023-12-13T23:02:15.394Z,79.44
2023-12-13T23:04:44.104Z,79.40
2023-12-13T23:07:12.328Z,79.41
2023-12-13T23:09:40.377Z,79.08
2023-12-13T23:12:08.876Z,79.45
2023-12-13T23:14:37.234Z,79.22
2023-12-13T23:17:05.837Z,79.44
2023-12-13T23:19:33.618Z,79.58
2023-12-13T23:22:01.879Z,79.48
2023-12-13T23:24:30.124Z,79.70
2023-12-13T23:26:57.702Z,79.63
2023-12-13T23:29:25.611Z,79.94
2023-12-13T23:31:53.883Z,80.36
2023-12-13T23:34:21.976Z,80.35
2023-12-13T23:36:49.931Z,80.51
2023-12-13T23:39:18.040Z,80.61
2023-12-13T23:41:46.118Z,80.96
2023-12-13T23:44:14.543Z,80.99
2023-12-13T23:46:43.222Z,80.70
2023-12-13T23:49:11.406Z,80.70
2023-12-13T23:51:39.443Z,80.46
2023-12-13T23:54:07.298Z,80.65
2023-12-13T23:56:37.147Z,80.82
2023-12-13T23:59:05.193Z,80.71
